Time,TemperatureF,DewpointF,PressureIn,WindDirection,WindDirectionDegrees,WindSpeedMPH,WindSpeedGustMPH,Humidity,HourlyPrecipIn,Conditions,Clouds,dailyrainin,SoftwareType,DateUTC
2013-07-10 00:11:00,65.0,65.0,-100.00,SE,140,2.0,4.0,97,0.00,,,-99.99,,2013-07-10 04:11:00,
2013-07-10 00:22:00,65.0,65.0,-100.00,SSE,155,1.0,4.0,98,0.00,,,-99.99,,2013-07-10 04:22:00,
2013-07-10 01:22:00,65.0,64.0,-100.00,SE,130,2.0,4.0,98,0.00,,,-99.99,,2013-07-10 05:22:00,
2013-07-10 01:32:00,65.0,64.0,-100.00,SSE,155,2.0,7.0,98,0.00,,,-99.99,,2013-07-10 05:32:00,
2013-07-10 01:42:00,65.0,64.0,-100.00,SSE,155,1.0,3.0,98,0.00,,,-99.99,,2013-07-10 05:42:00,
2013-07-10 02:01:00,64.0,64.0,-100.00,SSE,150,1.0,4.0,97,0.00,,,-99.99,,2013-07-10 06:01:00,
2013-07-10 02:11:00,64.0,64.0,-100.00,SSE,165,1.0,2.0,97,0.00,,,-99.99,,2013-07-10 06:11:00,
2013-07-10 02:22:00,64.0,64.0,-100.00,East,90,1.0,3.0,97,0.00,,,-99.99,,2013-07-10 06:22:00,
2013-07-10 04:23:00,64.0,63.0,-100.00,SE,125,2.0,4.0,98,0.00,,,-99.99,,2013-07-10 08:23:00,
2013-07-10 05:02:00,64.0,63.0,-100.00,SE,125,1.0,2.0,97,0.00,,,-99.99,,2013-07-10 09:02:00,
2013-07-10 05:12:00,64.0,63.0,-100.00,ESE,110,1.0,2.0,97,0.00,,,-99.99,,2013-07-10 09:12:00,
2013-07-10 05:22:00,64.0,63.0,-100.00,South,185,1.0,3.0,97,0.00,,,-99.99,,2013-07-10 09:22:00,
2013-07-10 05:32:00,64.0,63.0,-100.00,SE,135,0.0,2.0,97,0.00,,,-99.99,,2013-07-10 09:32:00,
2013-07-10 06:23:00,63.0,63.0,-100.00,SE,140,3.0,6.0,97,0.00,,,-99.99,,2013-07-10 10:23:00,
2013-07-10 06:32:00,63.0,63.0,-100.00,South,170,2.0,7.0,97,0.00,,,-99.99,,2013-07-10 10:32:00,
2013-07-10 06:51:00,-999.0,-99.9,-100.00,SE,140,1.0,4.0,-999,-99.99,,,-99.99,,2013-07-10 10:51:00,
2013-07-10 07:00:00,-999.0,-99.9,-100.00,SSE,160,2.0,4.0,-999,-99.99,,,-99.99,,2013-07-10 11:00:00,
2013-07-10 07:11:00,63.0,63.0,-100.00,South,170,2.0,5.0,98,0.00,,,-99.99,,2013-07-10 11:11:00,
2013-07-10 07:23:00,64.0,63.0,-100.00,East,100,1.0,4.0,98,0.00,,,-99.99,,2013-07-10 11:23:00,
2013-07-10 07:33:00,64.0,63.0,-100.00,SSE,150,1.0,4.0,98,0.00,,,-99.99,,2013-07-10 11:33:00,
2013-07-10 07:43:00,63.0,63.0,-100.00,SE,145,2.0,6.0,98,0.00,,,-99.99,,2013-07-10 11:43:00,
2013-07-10 08:02:00,64.0,63.0,-100.00,ENE,75,0.0,3.0,98,0.00,,,-99.99,,2013-07-10 12:02:00,
2013-07-10 08:22:00,64.0,63.0,-100.00,NE,35,1.0,3.0,98,0.00,,,-99.99,,2013-07-10 12:22:00,
2013-07-10 08:33:00,64.0,63.0,-100.00,East,90,1.0,4.0,98,0.00,,,-99.99,,2013-07-10 12:33:00,
2013-07-10 08:43:00,64.0,63.0,-100.00,SSE,150,2.0,6.0,98,0.00,,,-99.99,,2013-07-10 12:43:00,
2013-07-10 09:22:00,63.0,63.0,-100.00,SE,135,3.0,7.0,98,0.00,,,-99.99,,2013-07-10 13:22:00,
2013-07-10 10:22:00,64.0,64.0,-100.00,SE,135,2.0,4.0,98,0.00,,,-99.99,,2013-07-10 14:22:00,
2013-07-10 10:33:00,64.0,64.0,-100.00,SSE,155,1.0,4.0,98,0.00,,,-99.99,,2013-07-10 14:33:00,
2013-07-10 10:43:00,65.0,64.0,-100.00,SE,135,2.0,6.0,98,0.00,,,-99.99,,2013-07-10 14:43:00,
2013-07-10 11:34:00,65.0,65.0,-100.00,ENE,75,1.0,4.0,98,0.00,,,-99.99,,2013-07-10 15:34:00,
2013-07-10 12:02:00,66.0,65.0,-100.00,East,90,2.0,4.0,98,0.00,,,-99.99,,2013-07-10 16:02:00,
2013-07-10 12:11:00,66.0,65.0,-100.00,South,185,3.0,7.0,98,0.00,,,-99.99,,2013-07-10 16:11:00,
2013-07-10 12:23:00,66.0,65.0,-100.00,East,95,2.0,6.0,98,0.00,,,-99.99,,2013-07-10 16:23:00,
2013-07-10 12:33:00,66.0,66.0,-100.00,SSE,150,1.0,4.0,98,0.00,,,-99.99,,2013-07-10 16:33:00,
2013-07-10 13:02:00,67.0,67.0,-100.00,SSE,155,2.0,6.0,98,0.00,,,-99.99,,2013-07-10 17:02:00,
2013-07-10 13:12:00,68.0,67.0,-100.00,South,180,2.0,7.0,98,0.00,,,-99.99,,2013-07-10 17:12:00,
2013-07-10 13:23:00,68.0,68.0,-100.00,SSE,165,2.0,3.0,98,0.00,,,-99.99,,2013-07-10 17:23:00,
2013-07-10 13:32:00,68.0,68.0,-100.00,SSE,160,2.0,6.0,98,0.00,,,-99.99,,2013-07-10 17:32:00,
2013-07-10 13:43:00,69.0,68.0,-100.00,SE,140,2.0,7.0,96,0.00,,,-99.99,,2013-07-10 17:43:00,
2013-07-10 14:11:00,70.0,68.0,-100.00,South,180,3.0,7.0,91,0.00,,,-99.99,,2013-07-10 18:11:00,
2013-07-10 14:22:00,71.0,68.0,-100.00,South,175,1.0,2.0,91,0.00,,,-99.99,,2013-07-10 18:22:00,
2013-07-10 14:32:00,71.0,68.0,-100.00,SSE,160,1.0,4.0,91,0.00,,,-99.99,,2013-07-10 18:32:00,
2013-07-10 14:44:00,71.0,68.0,-100.00,SSE,165,4.0,7.0,89,0.00,,,-99.99,,2013-07-10 18:44:00,
2013-07-10 15:22:00,72.0,68.0,-100.00,SE,135,4.0,7.0,88,0.00,,,-99.99,,2013-07-10 19:22:00,
2013-07-10 15:42:00,73.0,69.0,-100.00,South,170,2.0,6.0,87,0.00,,,-99.99,,2013-07-10 19:42:00,
2013-07-10 16:52:00,71.0,69.0,-100.00,South,170,2.0,6.0,93,0.01,,,-99.99,,2013-07-10 20:52:00,
2013-07-10 17:01:00,71.0,69.0,-100.00,SE,140,2.0,5.0,94,0.00,,,-99.99,,2013-07-10 21:01:00,
2013-07-10 17:11:00,70.0,69.0,-100.00,South,180,2.0,7.0,95,0.03,,,-99.99,,2013-07-10 21:11:00,
2013-07-10 17:22:00,70.0,69.0,-100.00,SE,130,3.0,4.0,96,0.04,,,-99.99,,2013-07-10 21:22:00,
2013-07-10 18:21:00,70.0,69.0,-100.00,NNW,340,1.0,2.0,98,0.08,,,-99.99,,2013-07-10 22:21:00,
2013-07-10 19:11:00,70.0,70.0,-100.00,North,350,1.0,4.0,98,0.00,,,-99.99,,2013-07-10 23:11:00,
2013-07-10 19:32:00,70.0,70.0,-100.00,West,280,0.0,2.0,98,0.00,,,-99.99,,2013-07-10 23:32:00,
2013-07-10 19:43:00,70.0,70.0,-100.00,West,280,0.0,2.0,98,0.00,,,-99.99,,2013-07-10 23:43:00,
2013-07-10 20:01:00,70.0,70.0,-100.00,East,95,1.0,1.0,98,0.00,,,-99.99,,2013-07-11 00:01:00,
2013-07-10 20:22:00,70.0,70.0,-100.00,South,175,1.0,2.0,98,0.00,,,-99.99,,2013-07-11 00:22:00,
2013-07-10 22:11:00,69.0,69.0,-100.00,WSW,255,0.0,2.0,98,0.00,,,-99.99,,2013-07-11 02:11:00,
2013-07-10 22:22:00,69.0,69.0,-100.00,SW,225,0.0,1.0,98,0.00,,,-99.99,,2013-07-11 02:22:00,
2013-07-10 22:32:00,69.0,68.0,-100.00,ESE,105,0.0,1.0,98,0.00,,,-99.99,,2013-07-11 02:32:00,
2013-07-10 22:43:00,69.0,68.0,-100.00,North,10,0.0,2.0,98,0.00,,,-99.99,,2013-07-11 02:43:00,
2013-07-10 23:22:00,69.0,68.0,-100.00,NNW,345,1.0,2.0,98,0.00,,,-99.99,,2013-07-11 03:22:00,
2013-07-10 23:33:00,69.0,68.0,-100.00,North,350,0.0,1.0,98,0.00,,,-99.99,,2013-07-11 03:33:00,
2013-07-10 23:42:00,69.0,68.0,-100.00,NNW,345,1.0,1.0,98,0.00,,,-99.99,,2013-07-11 03:42:00,